Coromandel, Brazil
Current Conditions -  °F | °C
As of 3:00 AM on Wednesday 26 Nov 2014 (Local Time) from SBUL Reporting Station
Haze Haze  
Wind Chill: 68°   Ceiling: 200
Heat Index: 68°   Visibility: 1.2mi
Dew Point: 66°   Wind: 9mph
Humidity: 94%   Direction: 320°NW
Pressure: 29.94"   Gusts: NA
Location:  18.47°S, 47.2°W
Report Text: SBUL 260500Z 32008KT 2000 BR BKN002 20/19 Q1014
Loading
Personal Weather Stations






























Interactive Weather Map New forecast layout! Learn more

10-Day Weather Forecast

Advertisements
Track Severe Weather on mobile